Time;durP1;ratioP1;P1;durP2;ratioP2;P2;SDS_P1;SDS_P2;PMS_P1;PMS_P2;Temp;Humidity;BMP_temperature;BMP_pressure;BME280_temperature;BME280_humidity;BME280_pressure;Samples;Min_cycle;Max_cycle;Signal;HPM_P1;HPM_P2
2022/12/15 00:39:33;;;;;;;19.57;15.93;;;;;;;3.78;100.00;95187.31;5004344;28;20881;-62
2022/12/15 00:42:00;;;;;;;24.87;16.03;;;;;;;3.78;100.00;95184.69;5004414;28;20236;-61
2022/12/15 00:44:26;;;;;;;19.30;15.97;;;;;;;3.76;100.00;95180.53;4992625;28;20244;-62
2022/12/15 00:46:55;;;;;;;19.90;16.43;;;;;;;3.74;100.00;95191.16;4989754;28;20209;-62
2022/12/15 01:22:18;;;;;;;12.50;11.20;;;;;;;3.66;100.00;95218.91;4989989;28;20228;-62
2022/12/15 01:24:45;;;;;;;10.73;9.63;;;;;;;3.70;100.00;95231.59;4991843;28;20210;-62
2022/12/15 01:27:12;;;;;;;12.17;10.73;;;;;;;3.72;100.00;95228.84;4991887;28;20301;-63
2022/12/15 01:29:39;;;;;;;13.43;10.67;;;;;;;3.65;100.00;95228.53;4991046;28;20205;-64
2022/12/15 01:32:05;;;;;;;11.40;10.03;;;;;;;3.64;100.00;95247.81;4990801;28;20197;-64
2022/12/15 01:34:32;;;;;;;11.03;9.70;;;;;;;3.72;100.00;95234.06;4989066;28;20208;-62
2022/12/15 01:36:58;;;;;;;10.83;9.13;;;;;;;3.68;100.00;95238.75;4989348;28;20218;-62
2022/12/15 01:40:43;;;;;;;10.00;9.00;;;;;;;3.66;100.00;95248.50;4988215;28;20653;-62
2022/12/15 01:42:12;;;;;;;7.70;6.90;;;;;;;3.76;100.00;95257.19;4988673;28;20228;-62
2022/12/15 01:44:39;;;;;;;7.43;6.70;;;;;;;3.80;100.00;95252.50;4988469;28;20564;-62
2022/12/15 01:47:08;;;;;;;7.50;6.80;;;;;;;3.74;100.00;95253.88;4988908;28;20212;-62
2022/12/15 01:49:35;;;;;;;6.77;6.10;;;;;;;3.72;100.00;95258.41;4988323;28;20216;-62
2022/12/15 01:52:02;;;;;;;6.40;5.80;;;;;;;3.72;100.00;95247.94;4988675;28;20217;-61
2022/12/15 01:54:32;;;;;;;5.70;5.20;;;;;;;3.73;100.00;95264.47;4989020;28;20204;-62
2022/12/15 01:57:01;;;;;;;5.47;5.07;;;;;;;3.72;100.00;95261.03;4989259;28;20213;-61
2022/12/15 01:59:34;;;;;;;6.00;5.50;;;;;;;3.70;100.00;95262.97;4988877;28;20577;-62
2022/12/15 02:02:00;;;;;;;5.47;4.97;;;;;;;3.70;100.00;95262.97;4988774;28;20565;-62
2022/12/15 02:04:27;;;;;;;5.60;5.20;;;;;;;3.70;100.00;95262.13;4988624;28;20220;-62
2022/12/15 02:06:53;;;;;;;5.00;4.50;;;;;;;3.66;100.00;95255.50;4989256;28;20217;-61
2022/12/15 02:09:21;;;;;;;5.70;5.20;;;;;;;3.64;100.00;95247.81;4987301;28;20544;-62
2022/12/15 02:11:59;;;;;;;5.33;4.83;;;;;;;3.66;100.00;95255.50;4988288;28;20637;-62
2022/12/15 02:14:38;;;;;;;5.10;4.70;;;;;;;3.65;100.00;95254.69;4988718;28;20197;-62
2022/12/15 02:17:11;;;;;;;5.80;5.30;;;;;;;3.60;100.00;95249.03;4989354;28;20208;-62
2022/12/15 02:20:07;;;;;;;5.13;4.73;;;;;;;3.61;100.00;95257.72;4989651;28;20197;-61
2022/12/15 02:22:44;;;;;;;4.93;4.53;;;;;;;3.61;100.00;95252.50;4989919;28;20206;-62
2022/12/15 02:25:30;;;;;;;5.10;4.70;;;;;;;3.63;100.00;95253.16;4991333;28;20205;-62
2022/12/15 02:27:59;;;;;;;5.53;5.07;;;;;;;3.62;100.00;95259.34;4991474;28;20190;-62
2022/12/15 02:30:36;;;;;;;5.17;4.77;;;;;;;3.64;100.00;95258.28;4990951;28;20735;-62
2022/12/15 02:33:11;;;;;;;5.50;5.00;;;;;;;3.65;100.00;95259.09;4991124;28;20197;-62
2022/12/15 02:35:45;;;;;;;5.27;4.87;;;;;;;3.57;100.00;95265.00;4990823;28;20572;-62
2022/12/15 02:38:12;;;;;;;5.57;5.10;;;;;;;3.56;100.00;95260.72;4990964;28;20282;-62
2022/12/15 02:40:40;;;;;;;5.50;5.10;;;;;;;3.57;100.00;95265.00;4989126;28;20232;-62
2022/12/15 02:43:08;;;;;;;5.53;5.10;;;;;;;3.55;100.00;95274.75;4988218;28;20241;-62
2022/12/15 02:45:42;;;;;;;5.73;5.23;;;;;;;3.54;100.00;95267.88;4987869;28;20650;-61
2022/12/15 02:48:14;;;;;;;5.67;5.17;;;;;;;3.52;100.00;95282.84;4987558;28;20569;-61
2022/12/15 02:51:00;;;;;;;5.27;4.87;;;;;;;3.48;100.00;95273.63;4987901;28;20193;-63
2022/12/15 02:53:51;;;;;;;5.33;4.93;;;;;;;3.50;100.00;95282.19;4987265;28;20193;-62
2022/12/15 02:56:19;;;;;;;6.10;5.50;;;;;;;3.50;100.00;95283.00;4988131;28;20319;-63
2022/12/15 02:58:48;;;;;;;5.63;5.13;;;;;;;3.47;100.00;95272.00;4987897;28;20193;-62
2022/12/15 03:01:19;;;;;;;5.50;5.00;;;;;;;3.47;100.00;95285.06;4987768;28;20213;-62
2022/12/15 03:03:46;;;;;;;5.90;5.40;;;;;;;3.45;100.00;95282.56;4987251;28;20680;-62
2022/12/15 03:06:13;;;;;;;5.47;5.03;;;;;;;3.46;100.00;95291.25;4987783;28;20205;-61
2022/12/15 03:08:40;;;;;;;5.60;5.20;;;;;;;3.48;100.00;95294.53;4987509;28;20202;-63
2022/12/15 03:11:06;;;;;;;5.80;5.17;;;;;;;3.46;100.00;95291.25;4987602;28;20229;-62
2022/12/15 03:13:34;;;;;;;6.50;6.00;;;;;;;3.51;100.00;95295.09;4988038;28;20212;-62
2022/12/15 03:16:01;;;;;;;6.27;5.67;;;;;;;3.47;100.00;95282.44;4987977;28;20212;-61
2022/12/15 03:18:28;;;;;;;6.57;6.00;;;;;;;3.44;100.00;95282.69;4988408;28;20219;-61
2022/12/15 03:20:55;;;;;;;5.70;5.20;;;;;;;3.45;100.00;95282.56;4987971;28;20542;-62
2022/12/15 03:23:21;;;;;;;6.10;5.53;;;;;;;3.48;100.00;95284.06;4987896;28;20236;-62
2022/12/15 03:25:48;;;;;;;5.97;5.47;;;;;;;3.46;100.00;95286.84;4987434;28;20212;-62
2022/12/15 03:28:14;;;;;;;7.63;6.03;;;;;;;3.52;100.00;95285.47;4987536;28;20205;-62
2022/12/15 03:30:41;;;;;;;8.17;6.40;;;;;;;3.49;100.00;95285.75;4988563;28;20220;-62
2022/12/15 03:33:07;;;;;;;7.43;6.17;;;;;;;3.45;100.00;95284.34;4989916;28;20201;-62
2022/12/15 03:35:35;;;;;;;7.20;6.60;;;;;;;3.47;100.00;95293.69;4988432;28;20221;-62
2022/12/15 03:38:02;;;;;;;7.47;6.53;;;;;;;3.54;100.00;95293.19;4988070;28;20208;-62
2022/12/15 03:40:28;;;;;;;7.00;6.17;;;;;;;3.62;100.00;95301.16;4987870;28;20205;-62
2022/12/15 03:42:55;;;;;;;6.53;5.93;;;;;;;3.60;100.00;95300.50;4988249;28;20248;-61
2022/12/15 03:45:23;;;;;;;6.90;6.30;;;;;;;3.54;100.00;95296.63;4991630;28;20212;-61
2022/12/15 03:47:50;;;;;;;6.97;6.27;;;;;;;3.54;100.00;95294.03;4991484;28;20217;-61
2022/12/15 03:50:19;;;;;;;6.77;6.17;;;;;;;3.50;100.00;95287.41;4991897;28;20208;-62
2022/12/15 03:52:49;;;;;;;7.43;6.83;;;;;;;3.54;100.00;95287.97;4991500;28;20205;-62
2022/12/15 03:55:17;;;;;;;6.90;6.30;;;;;;;3.53;100.00;95292.34;4991166;28;20201;-61
2022/12/15 03:57:43;;;;;;;7.53;6.80;;;;;;;3.48;100.00;95289.31;4991735;28;20242;-61
2022/12/15 04:00:13;;;;;;;7.77;7.07;;;;;;;3.53;100.00;95289.75;4991686;28;20220;-62
2022/12/15 04:02:40;;;;;;;7.50;6.90;;;;;;;3.49;100.00;95285.75;4991374;28;20535;-62
2022/12/15 04:05:07;;;;;;;7.70;7.00;;;;;;;3.50;100.00;95298.69;4991213;28;20201;-61
2022/12/15 04:07:34;;;;;;;7.07;6.53;;;;;;;3.50;100.00;95287.41;4991326;28;20540;-62
2022/12/15 04:10:01;;;;;;;7.67;6.97;;;;;;;3.50;100.00;95293.47;4990989;28;20570;-61
2022/12/15 04:12:28;;;;;;;7.70;7.00;;;;;;;3.52;100.00;95298.53;4991783;28;20204;-61
2022/12/15 04:14:54;;;;;;;8.07;7.17;;;;;;;3.51;100.00;95289.03;4991334;28;20209;-61
2022/12/15 04:17:21;;;;;;;7.33;6.70;;;;;;;3.51;100.00;95294.25;4991243;28;20548;-62
2022/12/15 04:22:31;;;;;;;7.97;7.20;;;;;;;3.56;100.00;95291.25;4991004;28;20644;-61
2022/12/15 05:33:28;;;;;;;10.53;9.00;;;;;;;3.54;100.00;95355.91;4993914;28;20588;-61
2022/12/15 05:35:56;;;;;;;11.80;8.27;;;;;;;3.53;100.00;95349.84;4994093;28;20209;-62
2022/12/15 05:38:22;;;;;;;11.83;8.50;;;;;;;3.55;100.00;95342.69;4993304;28;20209;-61
2022/12/15 05:40:49;;;;;;;11.23;8.57;;;;;;;3.53;100.00;95349.84;4993936;28;20304;-62
2022/12/15 05:43:16;;;;;;;10.90;8.67;;;;;;;3.51;100.00;95352.59;4993416;28;20693;-62
2022/12/15 05:45:42;;;;;;;11.50;9.00;;;;;;;3.50;100.00;95347.50;4993693;28;20209;-62
2022/12/15 05:48:09;;;;;;;10.37;8.17;;;;;;;3.47;100.00;95347.78;4993788;28;20217;-61
2022/12/15 05:50:37;;;;;;;9.53;8.43;;;;;;;3.49;100.00;95357.13;4993253;28;20229;-62
2022/12/15 05:53:04;;;;;;;10.77;8.37;;;;;;;3.48;100.00;95354.63;4992678;28;20209;-61
2022/12/15 05:55:30;;;;;;;12.73;8.10;;;;;;;3.50;100.00;95350.13;4993171;28;20212;-60
2022/12/15 05:57:56;;;;;;;8.70;7.77;;;;;;;3.53;100.00;95349.84;4993340;28;21221;-61
2022/12/15 06:00:23;;;;;;;9.70;8.00;;;;;;;3.57;100.00;95350.41;4993133;28;20217;-61
2022/12/15 06:02:50;;;;;;;12.60;8.33;;;;;;;3.59;100.00;95343.25;4993144;28;20200;-62
2022/12/15 06:05:16;;;;;;;9.73;8.23;;;;;;;3.62;100.00;95338.59;4993391;28;20201;-60
2022/12/15 06:07:44;;;;;;;10.27;7.77;;;;;;;3.64;100.00;95333.25;4993594;28;20202;-60
2022/12/15 06:10:11;;;;;;;10.27;8.40;;;;;;;3.64;100.00;95338.47;4993107;28;20201;-61
2022/12/15 06:12:37;;;;;;;9.40;8.40;;;;;;;3.59;100.00;95328.41;4993079;28;20267;-62
2022/12/15 06:15:05;;;;;;;9.57;7.90;;;;;;;3.56;100.00;95327.84;4991697;28;20644;-63
2022/12/15 06:17:32;;;;;;;9.87;7.23;;;;;;;3.60;100.00;95331.84;4990974;28;20296;-60
2022/12/15 06:19:58;;;;;;;9.50;8.23;;;;;;;3.53;100.00;95333.34;4990874;28;20299;-62
2022/12/15 06:22:25;;;;;;;10.40;7.47;;;;;;;3.50;100.00;95329.22;4991566;28;20205;-62
2022/12/15 06:24:52;;;;;;;9.20;7.87;;;;;;;3.52;100.00;95332.50;4991386;28;20557;-63
2022/12/15 06:27:19;;;;;;;9.17;8.13;;;;;;;3.49;100.00;95327.56;4991761;28;20189;-62
2022/12/15 06:29:46;;;;;;;9.83;8.70;;;;;;;3.53;100.00;95323.72;4991733;28;20255;-63
2022/12/15 06:32:12;;;;;;;11.00;8.23;;;;;;;3.51;100.00;95331.69;4992674;28;20240;-63
2022/12/15 06:34:38;;;;;;;11.27;8.60;;;;;;;3.42;100.00;95332.47;4992510;28;20197;-63
2022/12/15 06:37:05;;;;;;;10.63;8.03;;;;;;;3.49;100.00;95324.94;4992371;28;20201;-63
2022/12/15 06:39:32;;;;;;;7.93;6.73;;;;;;;3.50;100.00;95332.66;4992190;28;20213;-62
2022/12/15 06:41:59;;;;;;;8.73;7.63;;;;;;;3.45;100.00;95331.38;4993452;28;20205;-61
2022/12/15 06:44:26;;;;;;;8.60;7.23;;;;;;;3.47;100.00;95340.72;4989452;28;20228;-62
2022/12/15 06:46:52;;;;;;;9.60;7.93;;;;;;;3.44;100.00;95348.00;4989048;28;20308;-62
2022/12/15 06:49:19;;;;;;;9.87;7.87;;;;;;;3.41;100.00;95354.34;4994788;28;20850;-63
2022/12/15 06:51:45;;;;;;;10.63;8.10;;;;;;;3.38;100.00;95351.16;4999375;28;20209;-63
2022/12/15 06:54:12;;;;;;;8.30;7.13;;;;;;;3.38;100.00;95345.94;4998853;28;20277;-62
2022/12/15 06:56:39;;;;;;;8.73;7.20;;;;;;;3.41;100.00;95346.50;4989183;28;20548;-61
2022/12/15 06:59:07;;;;;;;6.93;6.23;;;;;;;3.41;100.00;95340.44;4987446;28;20638;-62
2022/12/15 07:01:34;;;;;;;9.90;7.23;;;;;;;3.39;100.00;95345.81;4987664;28;20232;-63
2022/12/15 07:04:03;;;;;;;8.03;7.10;;;;;;;3.41;100.00;95343.06;4987669;28;20221;-63
2022/12/15 07:06:34;;;;;;;7.77;6.97;;;;;;;3.42;100.00;95355.16;4988035;28;20210;-62
2022/12/15 07:09:01;;;;;;;9.30;7.37;;;;;;;3.47;100.00;95347.78;4987479;28;20296;-62
2022/12/15 07:11:28;;;;;;;8.17;7.37;;;;;;;3.35;100.00;95356.66;4988368;28;20205;-63
2022/12/15 07:13:54;;;;;;;7.67;6.73;;;;;;;3.34;100.00;95362.81;4987738;28;20616;-62
2022/12/15 07:16:23;;;;;;;8.27;7.07;;;;;;;3.38;100.00;95372.06;4988602;28;20643;-62
2022/12/15 07:18:50;;;;;;;8.47;7.37;;;;;;;3.38;100.00;95372.06;4988012;28;20252;-63
2022/12/15 07:21:16;;;;;;;7.77;6.97;;;;;;;3.42;100.00;95376.06;4988384;28;20205;-63
2022/12/15 07:23:43;;;;;;;9.80;8.00;;;;;;;3.40;100.00;95384.03;4988433;28;20595;-63
2022/12/15 07:26:10;;;;;;;9.90;7.60;;;;;;;3.45;100.00;95394.09;4987787;28;20216;-63
2022/12/15 07:28:37;;;;;;;7.67;6.90;;;;;;;3.45;100.00;95391.47;4988637;28;20220;-63
2022/12/15 07:31:04;;;;;;;8.57;7.40;;;;;;;3.40;100.00;95393.69;4991056;28;20239;-62
2022/12/15 07:33:33;;;;;;;9.10;6.90;;;;;;;3.42;100.00;95403.03;4993325;28;20559;-61
2022/12/15 07:36:02;;;;;;;7.87;7.07;;;;;;;3.43;100.00;95401.25;4992755;28;20205;-62
2022/12/15 07:38:30;;;;;;;8.60;7.70;;;;;;;3.40;100.00;95406.75;4992531;28;20292;-62
2022/12/15 07:41:00;;;;;;;8.73;7.20;;;;;;;3.39;100.00;95408.53;4991901;28;20208;-62
2022/12/15 07:43:28;;;;;;;9.80;8.00;;;;;;;3.46;100.00;95404.44;4992242;28;20237;-62
2022/12/15 07:45:54;;;;;;;8.80;7.50;;;;;;;3.50;100.00;95402.38;4991211;28;20212;-63
2022/12/15 07:48:22;;;;;;;9.63;7.57;;;;;;;3.47;100.00;95400.84;4991826;28;20205;-62
2022/12/15 07:50:50;;;;;;;8.40;7.50;;;;;;;3.48;100.00;95388.59;4992210;28;20213;-60
2022/12/15 07:53:17;;;;;;;8.43;7.53;;;;;;;3.45;100.00;95394.94;4995331;28;20209;-63
2022/12/15 07:55:43;;;;;;;8.90;7.57;;;;;;;3.50;100.00;95408.44;4992759;28;20205;-63
2022/12/15 07:58:10;;;;;;;8.90;7.83;;;;;;;3.47;100.00;95400.84;4997005;28;20512;-64
2022/12/15 08:00:36;;;;;;;7.80;7.00;;;;;;;3.54;100.00;95405.56;4999056;28;20551;-64
2022/12/15 08:03:03;;;;;;;8.77;7.67;;;;;;;3.54;100.00;95413.41;4999296;28;20197;-63
2022/12/15 08:05:29;;;;;;;10.60;8.20;;;;;;;3.51;100.00;95415.31;4996321;28;20233;-62
2022/12/15 08:07:58;;;;;;;12.27;8.40;;;;;;;3.47;100.00;95408.69;4996979;28;20197;-62
2022/12/15 08:10:25;;;;;;;9.13;7.93;;;;;;;3.54;100.00;95414.25;5000737;28;20297;-63
2022/12/15 08:12:52;;;;;;;9.77;7.50;;;;;;;3.56;100.00;95414.94;4996236;28;20220;-61
2022/12/15 08:15:18;;;;;;;9.33;7.87;;;;;;;3.53;100.00;95412.56;4992729;28;20201;-63
2022/12/15 08:17:45;;;;;;;12.07;8.43;;;;;;;3.54;100.00;95423.88;4992694;28;20216;-63
2022/12/15 08:20:13;;;;;;;10.00;8.37;;;;;;;3.55;100.00;95430.72;4991935;28;20264;-62
2022/12/15 08:22:40;;;;;;;10.17;8.20;;;;;;;3.58;100.00;95428.69;4992070;28;20272;-63
2022/12/15 08:25:09;;;;;;;8.70;7.80;;;;;;;3.55;100.00;95435.94;4991427;28;20259;-63
2022/12/15 08:27:36;;;;;;;9.23;8.20;;;;;;;3.61;100.00;95431.06;4991778;28;20528;-62
2022/12/15 08:30:02;;;;;;;8.93;8.03;;;;;;;3.60;100.00;95424.16;4991781;28;20300;-62
2022/12/15 08:32:29;;;;;;;9.33;7.90;;;;;;;3.60;100.00;95421.56;4992456;28;20263;-62
2022/12/15 08:34:55;;;;;;;9.97;8.17;;;;;;;3.59;100.00;95422.50;4992124;28;20197;-65
2022/12/15 08:37:21;;;;;;;9.03;8.10;;;;;;;3.58;100.00;95415.59;4991448;28;20557;-62
2022/12/15 08:39:48;;;;;;;11.33;8.50;;;;;;;3.59;100.00;95414.66;4992174;28;20220;-63
2022/12/15 08:42:16;;;;;;;9.27;8.10;;;;;;;3.59;100.00;95401.59;4991346;28;20205;-62
2022/12/15 08:44:42;;;;;;;8.43;7.60;;;;;;;3.56;100.00;95401.03;5000364;28;20247;-62
2022/12/15 08:47:09;;;;;;;9.60;8.53;;;;;;;3.57;100.00;95402.69;5001185;28;20216;-62
2022/12/15 08:49:35;;;;;;;9.03;7.77;;;;;;;3.56;100.00;95399.25;5001575;28;20208;-65
2022/12/15 08:52:02;;;;;;;10.40;7.63;;;;;;;3.60;100.00;95407.66;5004864;28;20201;-63
2022/12/15 08:54:29;;;;;;;8.93;8.13;;;;;;;3.64;100.00;95404.66;5005268;28;20197;-62
2022/12/15 08:56:55;;;;;;;12.00;8.53;;;;;;;3.55;100.00;95404.59;5006291;28;20219;-62
2022/12/15 08:59:23;;;;;;;13.73;8.23;;;;;;;3.58;100.00;95405.16;5005777;28;20196;-63
2022/12/15 09:01:50;;;;;;;8.77;7.90;;;;;;;3.60;100.00;95410.25;5006044;28;20233;-61
2022/12/15 09:04:17;;;;;;;8.40;7.50;;;;;;;3.62;100.00;95422.22;5004742;28;20229;-63
2022/12/15 09:06:43;;;;;;;8.40;7.53;;;;;;;3.60;100.00;95412.88;5004391;28;20201;-63
2022/12/15 09:09:12;;;;;;;11.10;7.27;;;;;;;3.61;100.00;95414.53;5004682;28;20205;-63
2022/12/15 09:11:39;;;;;;;8.27;6.87;;;;;;;3.60;100.00;95418.09;5006053;28;20208;-63
2022/12/15 09:14:06;;;;;;;7.10;6.50;;;;;;;3.61;100.00;95427.59;5005442;28;20300;-63
2022/12/15 09:16:34;;;;;;;10.37;7.37;;;;;;;3.64;100.00;95428.19;5005274;28;20202;-63
2022/12/15 09:19:00;;;;;;;7.80;7.10;;;;;;;3.60;100.00;95434.63;5005539;28;20235;-62
2022/12/15 09:21:28;;;;;;;7.87;7.07;;;;;;;3.63;100.00;95439.59;5004837;28;20215;-62
2022/12/15 09:23:59;;;;;;;7.90;7.10;;;;;;;3.62;100.00;95435.31;5003789;28;20292;-63
2022/12/15 09:26:25;;;;;;;7.57;6.73;;;;;;;3.64;100.00;95429.97;5004437;28;20241;-63
2022/12/15 09:28:53;;;;;;;7.73;6.73;;;;;;;3.64;100.00;95425.56;5004988;28;20213;-62
2022/12/15 09:31:22;;;;;;;7.33;6.63;;;;;;;3.67;100.00;95429.69;5005778;28;20262;-63
2022/12/15 09:33:53;;;;;;;7.07;6.47;;;;;;;3.65;100.00;95424.59;5007985;28;20239;-63
2022/12/15 09:36:20;;;;;;;8.73;6.87;;;;;;;3.61;100.00;95420.59;5005640;28;20203;-61
2022/12/15 09:38:47;;;;;;;8.83;7.40;;;;;;;3.61;100.00;95425.81;5005482;28;20220;-62
2022/12/15 09:41:20;;;;;;;10.67;7.27;;;;;;;3.64;100.00;95429.97;5005028;28;20266;-62
2022/12/15 09:43:52;;;;;;;8.37;7.00;;;;;;;3.66;100.00;95426.25;4999408;28;20245;-63
2022/12/15 09:46:24;;;;;;;8.23;7.13;;;;;;;3.70;100.00;95422.41;4995010;28;20209;-63
2022/12/15 09:48:53;;;;;;;10.83;8.20;;;;;;;3.70;100.00;95416.34;4997049;28;20201;-62
2022/12/15 09:51:29;;;;;;;9.83;8.17;;;;;;;3.70;100.00;95426.81;4994643;28;20209;-63
2022/12/15 09:53:55;;;;;;;8.80;7.90;;;;;;;3.75;100.00;95425.47;4994531;28;20201;-62
2022/12/15 09:56:28;;;;;;;9.13;8.27;;;;;;;3.76;100.00;95424.50;4994943;28;20221;-63
2022/12/15 09:58:58;;;;;;;9.70;8.07;;;;;;;3.69;100.00;95427.75;4994321;28;20210;-62
2022/12/15 10:01:32;;;;;;;10.90;8.67;;;;;;;3.73;100.00;95437.00;4993324;28;20625;-62
2022/12/15 10:04:06;;;;;;;9.30;8.40;;;;;;;3.73;100.00;95437.00;4993873;28;20260;-62
2022/12/15 10:06:34;;;;;;;8.63;7.83;;;;;;;3.79;100.00;95434.69;4994228;28;20213;-62
2022/12/15 10:09:03;;;;;;;9.03;7.83;;;;;;;3.84;100.00;95439.53;4993783;28;20284;-61
2022/12/15 10:11:44;;;;;;;12.57;8.73;;;;;;;3.80;100.00;95431.13;4994394;28;20209;-62
2022/12/15 10:14:19;;;;;;;8.97;8.07;;;;;;;3.86;100.00;95430.59;4994252;28;20197;-62
2022/12/15 10:16:53;;;;;;;10.60;8.90;;;;;;;3.88;100.00;95426.06;4993778;28;20636;-62
2022/12/15 10:19:28;;;;;;;9.10;8.03;;;;;;;3.89;100.00;95419.91;4992861;28;20295;-62
2022/12/15 10:21:56;;;;;;;9.97;8.93;;;;;;;3.80;100.00;95409.38;4993655;28;20525;-63
2022/12/15 10:24:23;;;;;;;10.53;9.20;;;;;;;3.80;100.00;95404.97;4993489;28;20229;-62
2022/12/15 10:26:56;;;;;;;11.93;9.43;;;;;;;3.78;100.00;95401.69;4994161;28;20224;-62
2022/12/15 10:29:30;;;;;;;10.57;9.50;;;;;;;3.87;100.00;95394.81;4994281;28;20217;-62
2022/12/15 10:32:01;;;;;;;10.83;9.20;;;;;;;3.87;100.00;95390.41;4993960;28;20309;-62
2022/12/15 10:34:32;;;;;;;10.50;9.40;;;;;;;3.90;100.00;95381.47;4993932;28;20208;-62
2022/12/15 10:36:59;;;;;;;11.33;9.83;;;;;;;3.95;100.00;95371.44;4993620;28;20197;-62
2022/12/15 10:39:38;;;;;;;11.50;10.30;;;;;;;3.84;100.00;95361.09;4992876;28;20204;-62
2022/12/15 10:42:19;;;;;;;14.10;10.40;;;;;;;3.90;100.00;95356.16;4993505;28;20202;-62
2022/12/15 10:44:47;;;;;;;12.30;10.20;;;;;;;3.90;100.00;95350.91;5001872;28;20320;-62
2022/12/15 10:47:18;;;;;;;14.77;9.90;;;;;;;3.91;100.00;95347.34;5002740;28;20211;-62
2022/12/15 10:49:46;;;;;;;16.67;11.10;;;;;;;3.89;100.00;95345.84;5002535;28;20205;-61
2022/12/15 10:52:23;;;;;;;13.23;10.90;;;;;;;3.83;100.00;95349.81;5002654;28;20216;-62
2022/12/15 10:54:52;;;;;;;14.23;10.80;;;;;;;3.87;100.00;95345.97;5002627;28;20531;-62
2022/12/15 10:57:21;;;;;;;13.70;11.07;;;;;;;3.86;100.00;95348.72;5001960;28;20228;-61
2022/12/15 10:59:48;;;;;;;13.30;10.93;;;;;;;3.92;100.00;95354.25;5001980;28;20209;-63
2022/12/15 11:02:30;;;;;;;12.43;11.03;;;;;;;3.91;100.00;95351.75;5002198;28;20544;-61
2022/12/15 11:05:00;;;;;;;13.27;11.83;;;;;;;3.94;100.00;95354.91;5002567;28;20249;-62
2022/12/15 11:07:33;;;;;;;14.00;11.30;;;;;;;3.94;100.00;95349.69;5002125;28;20216;-62
2022/12/15 11:10:02;;;;;;;13.97;10.93;;;;;;;3.99;100.00;95346.69;5001881;28;20211;-63
2022/12/15 11:15:47;;;;;;;12.70;10.90;;;;;;;3.90;100.00;95337.84;5001678;28;20211;-61
2022/12/15 11:18:35;;;;;;;13.83;12.33;;;;;;;3.93;100.00;95319.25;5001992;28;20640;-62
2022/12/15 11:21:07;;;;;;;13.27;11.37;;;;;;;4.01;100.00;95324.66;5002007;28;20591;-62
2022/12/15 11:23:47;;;;;;;15.30;12.00;;;;;;;3.98;100.00;95318.88;5001889;28;20210;-62
2022/12/15 11:26:22;;;;;;;15.03;11.87;;;;;;;3.98;100.00;95311.84;5002193;28;20228;-62
2022/12/15 11:28:54;;;;;;;15.13;12.37;;;;;;;3.92;100.00;95295.88;5002274;28;20231;-62
2022/12/15 11:31:25;;;;;;;14.03;12.37;;;;;;;3.94;100.00;95302.63;5002154;28;20211;-62
2022/12/15 11:33:52;;;;;;;15.50;12.50;;;;;;;3.99;100.00;95287.38;5001379;28;20631;-61
2022/12/15 11:36:33;;;;;;;15.30;12.20;;;;;;;4.04;100.00;95276.47;5001652;28;20208;-61
2022/12/15 11:39:03;;;;;;;16.77;13.03;;;;;;;3.97;100.00;95276.19;5001416;28;20202;-61
2022/12/15 11:41:35;;;;;;;16.00;12.57;;;;;;;4.08;100.00;95271.78;5001360;28;20564;-62
2022/12/15 11:44:10;;;;;;;16.07;12.50;;;;;;;4.08;100.00;95269.19;4994932;28;20244;-62
2022/12/15 11:46:40;;;;;;;15.60;12.50;;;;;;;4.09;100.00;95265.59;4991783;28;20216;-62
2022/12/15 11:49:26;;;;;;;15.43;12.57;;;;;;;4.05;100.00;95266.84;4991473;28;20205;-62
2022/12/15 11:51:59;;;;;;;13.53;11.77;;;;;;;4.04;100.00;95259.97;4991981;28;20193;-62
2022/12/15 11:54:29;;;;;;;14.77;13.13;;;;;;;3.96;100.00;95261.50;4991656;28;20295;-62
2022/12/15 11:56:59;;;;;;;15.70;12.97;;;;;;;4.01;100.00;95267.13;4992935;28;20212;-62
2022/12/15 11:59:38;;;;;;;16.90;12.90;;;;;;;4.05;100.00;95259.81;4993223;28;20193;-63
2022/12/15 12:02:21;;;;;;;14.47;12.43;;;;;;;3.99;100.00;95258.59;4991971;28;20287;-62
2022/12/15 12:04:58;;;;;;;16.50;12.97;;;;;;;3.99;100.00;95257.75;4993215;28;20217;-62
2022/12/15 12:07:32;;;;;;;15.33;12.37;;;;;;;3.95;100.00;95257.22;4992907;28;20205;-62
2022/12/15 12:10:04;;;;;;;13.23;11.93;;;;;;;3.97;100.00;95255.28;4992449;28;20209;-61
2022/12/15 12:12:33;;;;;;;13.40;11.47;;;;;;;3.97;100.00;95255.28;4992916;28;20201;-62
2022/12/15 12:15:14;;;;;;;14.10;11.67;;;;;;;3.87;100.00;95254.44;4991970;28;20200;-61
2022/12/15 12:17:43;;;;;;;14.23;12.73;;;;;;;3.83;100.00;95245.22;4993041;28;20204;-61
2022/12/15 12:20:15;;;;;;;13.40;12.00;;;;;;;3.83;100.00;95242.59;4993018;28;20559;-61
2022/12/15 12:22:48;;;;;;;13.20;11.23;;;;;;;3.82;100.00;95240.13;4992898;28;20197;-61
2022/12/15 12:25:18;;;;;;;14.40;11.20;;;;;;;3.82;100.00;95235.75;4996127;28;20221;-61
2022/12/15 12:27:51;;;;;;;16.57;12.67;;;;;;;3.86;100.00;95231.88;4997892;28;21283;-61
2022/12/15 12:30:20;;;;;;;14.00;11.20;;;;;;;3.85;100.00;95234.63;4997179;28;20201;-61
2022/12/15 12:32:52;;;;;;;13.53;11.40;;;;;;;3.85;100.00;95230.22;4996851;28;20267;-62
2022/12/15 12:35:24;;;;;;;13.60;11.43;;;;;;;3.92;100.00;95235.75;4996177;28;20208;-61
2022/12/15 12:37:56;;;;;;;14.87;12.23;;;;;;;3.89;100.00;95229.00;4996043;28;20197;-61
2022/12/15 12:40:28;;;;;;;13.30;11.73;;;;;;;3.93;100.00;95222.50;4995886;28;20600;-61
2022/12/15 12:42:56;;;;;;;13.23;11.53;;;;;;;3.94;100.00;95216.31;4996435;28;20241;-61
2022/12/15 12:45:25;;;;;;;14.63;12.20;;;;;;;3.97;100.00;95218.66;4996304;28;20213;-62
2022/12/15 12:47:52;;;;;;;15.97;12.77;;;;;;;3.90;100.00;95207.09;4996038;28;20644;-61
2022/12/15 12:50:21;;;;;;;15.97;12.87;;;;;;;3.78;100.00;95216.06;4996007;28;20201;-62
2022/12/15 12:52:50;;;;;;;14.43;12.77;;;;;;;3.89;100.00;95215.09;4995990;28;20635;-61
2022/12/15 12:55:30;;;;;;;16.07;12.63;;;;;;;3.72;100.00;95205.31;4995465;28;20194;-62
2022/12/15 12:57:56;;;;;;;16.77;12.13;;;;;;;3.75;100.00;95213.72;4995884;28;20200;-61
2022/12/15 13:00:25;;;;;;;15.60;13.30;;;;;;;3.76;100.00;95210.13;4995632;28;20212;-62
2022/12/15 13:03:13;;;;;;;18.27;14.50;;;;;;;3.76;100.00;95206.69;4995758;28;20621;-61
2022/12/15 13:05:41;;;;;;;16.37;13.90;;;;;;;3.75;100.00;95203.25;4995214;28;20284;-61
2022/12/15 13:08:46;;;;;;;18.63;13.93;;;;;;;3.79;100.00;95198.59;4995696;28;20205;-62
2022/12/15 13:11:57;;;;;;;16.80;13.93;;;;;;;3.74;100.00;95185.91;4986687;28;20223;-62
2022/12/15 13:14:44;;;;;;;15.47;13.57;;;;;;;3.77;100.00;95176.97;4935468;29;20590;-61
2022/12/15 13:17:15;;;;;;;20.40;13.57;;;;;;;3.76;100.00;95168.28;4985497;28;20252;-60
2022/12/15 13:20:29;;;;;;;19.23;15.13;;;;;;;3.78;100.00;95150.69;4995800;28;20205;-60
2022/12/15 13:23:17;;;;;;;19.37;14.83;;;;;;;3.78;100.00;95145.47;4995887;28;20201;-62
2022/12/15 13:25:44;;;;;;;19.40;15.37;;;;;;;3.73;100.00;95146.84;4995406;28;20209;-61
2022/12/15 13:28:27;;;;;;;21.30;16.83;;;;;;;3.77;100.00;95149.03;4995295;28;20224;-60
2022/12/15 13:31:21;;;;;;;22.90;17.10;;;;;;;3.70;100.00;95140.09;4993241;28;20290;-60
2022/12/15 13:33:53;;;;;;;20.53;15.77;;;;;;;3.63;100.00;95146.00;4995420;28;20216;-61
2022/12/15 13:36:46;;;;;;;21.87;16.67;;;;;;;3.60;100.00;95143.69;4994552;28;20269;-59
2022/12/15 13:39:33;;;;;;;21.80;16.53;;;;;;;3.59;100.00;95140.22;4994352;28;20205;-61
2022/12/15 13:42:28;;;;;;;20.23;16.13;;;;;;;3.52;100.00;95139.13;4995243;28;20612;-60
2022/12/15 13:45:03;;;;;;;21.93;16.17;;;;;;;3.53;100.00;95147.78;4994870;28;20205;-61
2022/12/15 13:47:31;;;;;;;17.97;15.13;;;;;;;3.48;100.00;95149.03;4995682;28;20197;-61
2022/12/15 13:50:01;;;;;;;18.80;14.97;;;;;;;3.50;100.00;95146.28;5000820;28;20209;-61
2022/12/15 13:52:33;;;;;;;20.30;15.77;;;;;;;3.36;100.00;95146.69;5003169;28;20228;-59
2022/12/15 13:55:02;;;;;;;19.77;14.30;;;;;;;3.37;100.00;95151.75;5001526;28;20202;-60
2022/12/15 13:57:31;;;;;;;18.73;15.13;;;;;;;3.40;100.00;95153.31;5000957;28;20209;-59
2022/12/15 14:00:03;;;;;;;19.70;15.47;;;;;;;3.44;100.00;95152.03;4999307;28;20221;-61
2022/12/15 14:02:33;;;;;;;18.97;15.37;;;;;;;3.35;100.00;95148.47;5006402;28;20201;-60
2022/12/15 14:05:05;;;;;;;19.57;14.87;;;;;;;3.37;100.00;95145.72;4999863;28;20579;-61
2022/12/15 14:07:33;;;;;;;21.00;14.73;;;;;;;3.37;100.00;95140.47;4993606;28;20645;-61